createdAt,value
2022-07-28T00:01:34.063Z,14.90
2022-07-28T00:04:01.106Z,14.90
2022-07-28T00:06:27.949Z,14.90
2022-07-28T00:08:55.113Z,14.90
2022-07-28T00:11:22.163Z,14.90
2022-07-28T00:13:48.974Z,14.90
2022-07-28T00:16:15.858Z,14.80
2022-07-28T00:18:42.755Z,14.80
2022-07-28T00:21:09.494Z,14.80
2022-07-28T00:23:38.890Z,14.80
2022-07-28T00:26:08.586Z,14.80
2022-07-28T00:28:36.319Z,14.70
2022-07-28T00:31:06.154Z,14.70
2022-07-28T00:33:34.647Z,14.70
2022-07-28T00:36:01.589Z,14.70
2022-07-28T00:38:28.451Z,14.70
2022-07-28T00:41:10.900Z,14.70
2022-07-28T00:43:42.922Z,14.70
2022-07-28T00:46:10.177Z,14.70
2022-07-28T00:48:42.865Z,14.60
2022-07-28T00:51:10.186Z,14.60
2022-07-28T00:53:40.219Z,14.60
2022-07-28T00:56:07.542Z,14.60
2022-07-28T00:58:36.239Z,14.50
2022-07-28T01:01:07.779Z,14.50
2022-07-28T01:03:37.645Z,14.50
2022-07-28T01:06:29.475Z,14.50
2022-07-28T01:09:14.407Z,14.50
2022-07-28T01:12:18.278Z,14.50
2022-07-28T01:15:23.902Z,14.50
2022-07-28T01:17:56.805Z,14.40
2022-07-28T01:20:30.402Z,14.40
2022-07-28T01:23:12.511Z,14.50
2022-07-28T01:26:17.827Z,14.40
2022-07-28T01:29:03.206Z,14.40
2022-07-28T01:31:39.526Z,14.40
2022-07-28T01:34:10.820Z,14.40
2022-07-28T01:36:43.126Z,14.30
2022-07-28T01:39:11.191Z,14.30
2022-07-28T01:41:39.533Z,14.30
2022-07-28T01:44:10.510Z,14.30
2022-07-28T01:46:37.592Z,14.30
2022-07-28T01:49:06.538Z,14.30
2022-07-28T01:51:35.554Z,14.20
2022-07-28T01:54:03.347Z,14.20
2022-07-28T01:56:32.556Z,14.20
2022-07-28T01:59:03.759Z,14.10
2022-07-28T02:01:35.268Z,14.10
2022-07-28T02:04:04.652Z,14.10
2022-07-28T02:06:34.955Z,14.10
2022-07-28T02:09:04.655Z,14.00
2022-07-28T02:11:43.066Z,14.00
2022-07-28T02:14:15.421Z,14.00
2022-07-28T02:16:46.990Z,13.90
2022-07-28T02:19:14.590Z,13.90
2022-07-28T02:21:42.854Z,13.90
2022-07-28T02:24:12.569Z,13.80
2022-07-28T02:26:46.488Z,13.80
2022-07-28T02:29:40.576Z,13.70
2022-07-28T02:32:56.591Z,13.80
2022-07-28T02:35:45.786Z,13.70
2022-07-28T02:38:22.684Z,13.70
2022-07-28T02:40:55.622Z,13.70
2022-07-28T02:43:44.973Z,13.70
2022-07-28T02:46:19.061Z,13.70
2022-07-28T02:48:50.419Z,13.60
2022-07-28T02:51:20.944Z,13.60
2022-07-28T02:53:48.905Z,13.60
2022-07-28T02:56:17.470Z,13.60
2022-07-28T02:58:44.819Z,13.50
2022-07-28T03:01:12.375Z,13.50
2022-07-28T03:03:43.954Z,13.50
2022-07-28T03:06:11.074Z,13.40
2022-07-28T03:08:38.231Z,13.40
2022-07-28T03:11:12.460Z,13.40
2022-07-28T03:13:40.081Z,13.30
2022-07-28T03:16:07.116Z,13.30
2022-07-28T03:18:34.351Z,13.30
2022-07-28T03:21:01.678Z,13.30
2022-07-28T03:23:42.680Z,13.30
2022-07-28T03:26:12.761Z,13.30
2022-07-28T03:28:40.426Z,13.20
2022-07-28T03:31:10.635Z,13.20
2022-07-28T03:33:38.335Z,13.20
2022-07-28T03:36:13.622Z,13.20
2022-07-28T03:38:48.707Z,13.10
2022-07-28T03:41:18.038Z,13.10
2022-07-28T03:43:45.097Z,13.00
2022-07-28T03:46:13.605Z,13.00
2022-07-28T03:48:40.678Z,13.00
2022-07-28T03:51:07.512Z,13.00
2022-07-28T03:53:34.308Z,13.00
2022-07-28T03:56:03.277Z,13.00
2022-07-28T03:58:31.163Z,13.00
2022-07-28T04:00:58.667Z,13.00
2022-07-28T04:03:42.468Z,13.00
2022-07-28T04:06:15.195Z,13.00
2022-07-28T04:08:43.887Z,13.00
2022-07-28T04:11:11.128Z,13.00
2022-07-28T04:13:38.180Z,13.00
2022-07-28T04:16:06.930Z,13.00
2022-07-28T04:18:34.094Z,13.00
2022-07-28T04:21:00.825Z,12.90
2022-07-28T04:23:28.420Z,12.90
2022-07-28T04:25:55.403Z,12.90
2022-07-28T04:28:22.821Z,12.90
2022-07-28T04:30:49.781Z,13.00
2022-07-28T04:33:18.583Z,13.00
2022-07-28T04:35:47.960Z,13.00
2022-07-28T04:38:17.139Z,13.00
2022-07-28T04:40:44.070Z,13.00
2022-07-28T04:43:11.307Z,13.00
2022-07-28T04:45:38.789Z,13.00
2022-07-28T04:48:14.220Z,13.00
2022-07-28T04:50:45.497Z,13.00
2022-07-28T04:53:12.813Z,13.00
2022-07-28T04:55:39.771Z,13.10
2022-07-28T04:58:07.022Z,13.10
2022-07-28T05:00:36.237Z,13.10
2022-07-28T05:03:04.267Z,13.10
2022-07-28T05:05:31.353Z,13.10
2022-07-28T05:07:58.254Z,13.10
2022-07-28T05:10:25.296Z,13.10
2022-07-28T05:12:53.295Z,13.20
2022-07-28T05:15:20.539Z,13.20
2022-07-28T05:17:47.316Z,13.20
2022-07-28T05:20:14.294Z,13.20
2022-07-28T05:22:46.482Z,13.20
2022-07-28T05:25:21.678Z,13.20
2022-07-28T05:27:49.663Z,13.20
2022-07-28T05:30:17.081Z,13.30
2022-07-28T05:32:49.095Z,13.30
2022-07-28T05:35:16.316Z,13.30
2022-07-28T05:37:43.956Z,13.40
2022-07-28T05:40:18.262Z,13.50
2022-07-28T05:42:47.521Z,13.60
2022-07-28T05:45:16.947Z,13.80
2022-07-28T05:47:49.739Z,13.80
2022-07-28T05:50:18.133Z,13.90
2022-07-28T05:52:46.299Z,13.90
2022-07-28T05:55:13.817Z,14.00
2022-07-28T05:57:41.717Z,14.00
2022-07-28T06:00:10.946Z,14.10
2022-07-28T06:02:38.311Z,14.20
2022-07-28T06:05:08.878Z,14.20
2022-07-28T06:07:43.216Z,14.30
2022-07-28T06:10:16.124Z,14.30
2022-07-28T06:12:45.001Z,14.30
2022-07-28T06:15:19.445Z,14.40
2022-07-28T06:17:46.335Z,14.40
2022-07-28T06:20:13.804Z,14.60
2022-07-28T06:22:43.022Z,14.60
2022-07-28T06:25:17.450Z,14.60
2022-07-28T06:27:49.130Z,14.70
2022-07-28T06:30:16.565Z,14.80
2022-07-28T06:32:43.968Z,14.70
2022-07-28T06:35:12.056Z,14.80
2022-07-28T06:37:38.810Z,14.90
2022-07-28T06:40:07.243Z,15.00
2022-07-28T06:42:34.274Z,15.00
2022-07-28T06:45:01.220Z,15.10
2022-07-28T06:47:28.075Z,15.20
2022-07-28T06:49:54.810Z,15.30
2022-07-28T06:52:22.131Z,15.40
2022-07-28T06:54:51.680Z,15.50
2022-07-28T06:57:20.695Z,15.60
2022-07-28T06:59:48.798Z,15.60
2022-07-28T07:02:16.383Z,15.70
2022-07-28T07:04:45.145Z,15.80
2022-07-28T07:07:15.472Z,15.80
2022-07-28T07:09:44.700Z,15.90
2022-07-28T07:12:11.580Z,15.80
2022-07-28T07:14:38.428Z,15.80
2022-07-28T07:17:05.257Z,15.90
2022-07-28T07:19:32.153Z,15.90
2022-07-28T07:21:58.940Z,16.00
2022-07-28T07:24:26.066Z,16.00
2022-07-28T07:26:53.533Z,16.10
2022-07-28T07:29:22.270Z,16.30
2022-07-28T07:31:52.899Z,16.30
2022-07-28T07:34:20.347Z,16.30
2022-07-28T07:36:49.782Z,16.40
2022-07-28T07:39:16.615Z,16.40
2022-07-28T07:41:43.602Z,16.40
2022-07-28T07:44:10.982Z,16.30
2022-07-28T07:46:38.648Z,16.40
2022-07-28T07:49:06.276Z,16.50
2022-07-28T07:51:34.491Z,16.60
2022-07-28T07:54:01.473Z,16.70
2022-07-28T07:56:28.363Z,16.80
2022-07-28T07:58:57.195Z,17.00
2022-07-28T08:01:24.420Z,17.00
2022-07-28T08:03:51.518Z,17.00
2022-07-28T08:06:26.269Z,17.20
2022-07-28T08:08:54.986Z,17.20
2022-07-28T08:11:21.855Z,17.40
2022-07-28T08:13:48.742Z,17.40
2022-07-28T08:16:15.632Z,17.50
2022-07-28T08:18:42.756Z,17.60
2022-07-28T08:21:09.612Z,17.70
2022-07-28T08:23:36.391Z,17.70
2022-07-28T08:26:04.498Z,17.80
2022-07-28T08:28:31.396Z,17.80
2022-07-28T08:30:58.520Z,17.90
2022-07-28T08:33:25.335Z,18.00
2022-07-28T08:35:52.161Z,18.00
2022-07-28T08:38:20.517Z,18.00
2022-07-28T08:40:50.425Z,18.10
2022-07-28T08:43:26.075Z,18.20
2022-07-28T08:45:58.121Z,18.20
2022-07-28T08:48:27.224Z,18.30
2022-07-28T08:50:56.337Z,18.40
2022-07-28T08:53:23.181Z,18.50
2022-07-28T08:55:51.278Z,18.70
2022-07-28T08:58:18.274Z,18.70
2022-07-28T09:00:46.401Z,18.80
2022-07-28T09:03:14.047Z,18.80
2022-07-28T09:05:43.129Z,18.80
2022-07-28T09:08:12.354Z,18.80
2022-07-28T09:10:39.178Z,18.90
2022-07-28T09:13:06.003Z,18.90
2022-07-28T09:15:33.478Z,19.00
2022-07-28T09:18:00.440Z,19.10
2022-07-28T09:20:29.670Z,19.30
2022-07-28T09:22:59.493Z,19.40
2022-07-28T09:25:27.179Z,19.40
2022-07-28T09:27:55.264Z,19.40
2022-07-28T09:30:34.148Z,19.50
2022-07-28T09:33:41.281Z,19.60
2022-07-28T09:36:15.564Z,19.70
2022-07-28T09:38:42.417Z,19.80
2022-07-28T09:41:09.275Z,19.90
2022-07-28T09:43:42.438Z,19.90
2022-07-28T09:46:13.405Z,20.10
2022-07-28T09:48:49.140Z,20.20
2022-07-28T09:51:18.475Z,20.20
2022-07-28T09:53:45.472Z,20.30
2022-07-28T09:56:12.928Z,20.40
2022-07-28T09:58:40.970Z,20.40
2022-07-28T10:01:10.051Z,20.50
2022-07-28T10:03:40.634Z,20.60
2022-07-28T10:06:11.514Z,20.60
2022-07-28T10:08:50.452Z,20.60
2022-07-28T10:11:19.949Z,20.80
2022-07-28T10:14:04.328Z,20.90
2022-07-28T10:16:53.448Z,20.90
2022-07-28T10:19:20.230Z,21.10
2022-07-28T10:21:49.491Z,21.20
2022-07-28T10:24:25.118Z,21.20
2022-07-28T10:26:54.573Z,21.30
2022-07-28T10:29:22.541Z,21.40
2022-07-28T10:32:05.136Z,21.50
2022-07-28T10:34:37.552Z,21.60
2022-07-28T10:37:07.364Z,21.60
2022-07-28T10:39:43.451Z,21.80
2022-07-28T10:42:12.224Z,21.90
2022-07-28T10:44:41.659Z,22.00
2022-07-28T10:47:18.171Z,22.00
2022-07-28T10:49:50.055Z,22.10
2022-07-28T10:52:45.629Z,22.20
2022-07-28T10:55:33.894Z,22.30
2022-07-28T10:58:12.559Z,22.40
2022-07-28T11:00:56.568Z,22.50
2022-07-28T11:03:36.236Z,22.50
2022-07-28T11:06:24.077Z,22.50
2022-07-28T11:09:00.525Z,22.60
2022-07-28T11:11:51.518Z,22.80
2022-07-28T11:14:24.877Z,22.90
2022-07-28T11:17:01.065Z,23.20
2022-07-28T11:19:51.605Z,23.30
2022-07-28T11:22:29.079Z,23.40
2022-07-28T11:24:58.055Z,23.60
2022-07-28T11:27:46.041Z,23.60
2022-07-28T11:30:36.801Z,23.60
2022-07-28T11:33:05.615Z,23.70
2022-07-28T11:35:53.735Z,23.80
2022-07-28T11:38:20.726Z,23.70
2022-07-28T11:40:53.745Z,23.60
2022-07-28T11:43:37.000Z,23.70
2022-07-28T11:46:07.008Z,23.70
2022-07-28T11:48:37.880Z,23.80
2022-07-28T11:51:04.709Z,23.80
2022-07-28T11:53:40.297Z,24.00
2022-07-28T11:56:09.363Z,24.20
2022-07-28T11:58:37.079Z,24.30
2022-07-28T12:01:19.978Z,24.40
2022-07-28T12:03:56.007Z,24.50
2022-07-28T12:06:35.781Z,24.60
2022-07-28T12:09:07.600Z,24.60
2022-07-28T12:11:41.733Z,24.80
2022-07-28T12:14:19.570Z,24.80
2022-07-28T12:16:51.114Z,24.90
2022-07-28T12:19:19.826Z,24.90
2022-07-28T12:21:52.189Z,25.00
2022-07-28T12:24:26.175Z,25.00
2022-07-28T12:26:53.023Z,24.90
2022-07-28T12:29:20.699Z,24.90
2022-07-28T12:31:59.140Z,25.00
2022-07-28T12:34:31.452Z,25.20
2022-07-28T12:37:02.176Z,25.40
2022-07-28T12:39:30.952Z,25.30
2022-07-28T12:42:12.261Z,25.10
2022-07-28T12:44:44.115Z,25.10
2022-07-28T12:47:12.963Z,25.20
2022-07-28T12:49:41.814Z,24.90
2022-07-28T12:52:23.505Z,24.80
2022-07-28T12:54:54.662Z,24.70
2022-07-28T12:57:51.025Z,24.80
2022-07-28T13:00:27.214Z,25.10
2022-07-28T13:02:57.492Z,25.30
2022-07-28T13:05:33.006Z,25.50
2022-07-28T13:08:05.183Z,25.80
2022-07-28T13:10:32.865Z,26.00
2022-07-28T13:13:04.755Z,26.00
2022-07-28T13:15:31.830Z,26.10
2022-07-28T13:17:59.231Z,26.40
2022-07-28T13:20:26.753Z,26.40
2022-07-28T13:22:54.527Z,26.40
2022-07-28T13:25:21.787Z,26.50
2022-07-28T13:27:54.205Z,26.80
2022-07-28T13:30:22.587Z,27.00
2022-07-28T13:32:49.386Z,27.20
2022-07-28T13:35:16.332Z,27.30
2022-07-28T13:37:46.315Z,27.20
2022-07-28T13:40:13.382Z,27.20
2022-07-28T13:42:40.195Z,27.20
2022-07-28T13:45:22.069Z,27.20
2022-07-28T13:47:51.965Z,27.30
2022-07-28T13:50:19.334Z,27.40
2022-07-28T13:52:46.091Z,27.30
2022-07-28T13:55:12.934Z,27.10
2022-07-28T13:57:43.284Z,26.90
2022-07-28T14:00:10.688Z,27.20
2022-07-28T14:02:38.886Z,27.40
2022-07-28T14:05:11.285Z,27.60
2022-07-28T14:07:38.083Z,27.30
2022-07-28T14:10:06.920Z,27.10
2022-07-28T14:12:34.244Z,27.00
2022-07-28T14:15:05.537Z,27.00
2022-07-28T14:17:44.396Z,26.90
2022-07-28T14:20:13.673Z,26.90
2022-07-28T14:22:40.778Z,27.00
2022-07-28T14:25:08.234Z,26.90
2022-07-28T14:27:35.143Z,26.90
2022-07-28T14:30:03.514Z,27.10
2022-07-28T14:32:31.696Z,27.30
2022-07-28T14:34:58.511Z,27.40
2022-07-28T14:37:25.381Z,27.30
2022-07-28T14:39:52.572Z,27.10
2022-07-28T14:42:19.597Z,27.10
2022-07-28T14:44:46.362Z,27.20
2022-07-28T14:47:13.268Z,27.20
2022-07-28T14:49:58.255Z,27.30
2022-07-28T14:52:26.864Z,27.30
2022-07-28T14:54:54.404Z,27.30
2022-07-28T14:57:24.413Z,27.30
2022-07-28T15:00:14.982Z,27.40
2022-07-28T15:02:41.974Z,27.70
2022-07-28T15:05:10.159Z,27.80
2022-07-28T15:07:37.333Z,27.80
2022-07-28T15:10:05.409Z,27.80
2022-07-28T15:12:32.144Z,28.00
2022-07-28T15:14:58.981Z,28.20
2022-07-28T15:17:25.735Z,28.00
2022-07-28T15:19:52.489Z,28.00
2022-07-28T15:22:19.470Z,27.90
2022-07-28T15:24:46.260Z,27.70
2022-07-28T15:27:13.083Z,27.50
2022-07-28T15:29:39.937Z,27.30
2022-07-28T15:32:10.787Z,27.20
2022-07-28T15:34:39.815Z,27.20
2022-07-28T15:37:06.789Z,27.30
2022-07-28T15:39:34.110Z,27.20
2022-07-28T15:42:01.351Z,27.20
2022-07-28T15:44:29.902Z,27.40
2022-07-28T15:46:56.969Z,27.60
2022-07-28T15:49:24.217Z,27.60
2022-07-28T15:51:51.092Z,27.60
2022-07-28T15:54:18.650Z,27.60
2022-07-28T15:56:45.946Z,27.60
2022-07-28T15:59:12.738Z,27.40
2022-07-28T16:01:45.027Z,27.40
2022-07-28T16:04:12.984Z,27.20
2022-07-28T16:06:58.915Z,27.20
2022-07-28T16:09:45.698Z,27.10
2022-07-28T16:12:14.391Z,27.10
2022-07-28T16:14:41.843Z,26.90
2022-07-28T16:17:09.789Z,26.70
2022-07-28T16:19:49.035Z,26.70
2022-07-28T16:22:17.654Z,26.50
2022-07-28T16:24:44.457Z,26.50
2022-07-28T16:27:11.282Z,26.20
2022-07-28T16:29:38.251Z,26.20
2022-07-28T16:32:05.390Z,26.00
2022-07-28T16:34:32.343Z,25.90
2022-07-28T16:36:59.120Z,25.80
2022-07-28T16:39:25.970Z,25.70
2022-07-28T16:41:53.157Z,25.60
2022-07-28T16:44:20.410Z,25.40
2022-07-28T16:46:47.775Z,25.30
2022-07-28T16:49:16.283Z,25.20
2022-07-28T16:51:43.627Z,25.10
2022-07-28T16:54:13.291Z,25.00
2022-07-28T16:56:42.559Z,24.90
2022-07-28T16:59:09.515Z,24.80
2022-07-28T17:01:36.346Z,24.80
2022-07-28T17:04:03.357Z,24.70
2022-07-28T17:06:34.063Z,24.60
2022-07-28T17:09:01.104Z,24.50
2022-07-28T17:11:27.926Z,24.40
2022-07-28T17:13:54.649Z,24.40
2022-07-28T17:16:21.598Z,24.30
2022-07-28T17:18:48.413Z,24.20
2022-07-28T17:21:15.179Z,24.10
2022-07-28T17:23:42.058Z,24.10
2022-07-28T17:27:12.939Z,24.00
2022-07-28T17:28:55.904Z,24.10
2022-07-28T17:31:22.731Z,24.10
2022-07-28T17:33:49.847Z,24.10
2022-07-28T17:36:16.661Z,24.10
2022-07-28T17:38:43.431Z,24.00
2022-07-28T17:41:10.310Z,23.90
2022-07-28T17:43:41.017Z,23.90
2022-07-28T17:46:11.275Z,23.80
2022-07-28T17:48:38.688Z,23.70
2022-07-28T17:51:07.499Z,23.70
2022-07-28T17:53:39.100Z,23.60
2022-07-28T17:56:08.548Z,23.60
2022-07-28T17:58:35.686Z,23.50
2022-07-28T18:01:12.359Z,23.40
2022-07-28T18:03:59.715Z,23.40
2022-07-28T18:06:40.147Z,23.30
2022-07-28T18:09:10.589Z,23.30
2022-07-28T18:11:57.271Z,23.20
2022-07-28T18:14:26.565Z,23.10
2022-07-28T18:16:53.739Z,23.10
2022-07-28T18:19:20.787Z,23.10
2022-07-28T18:21:47.508Z,23.10
2022-07-28T18:24:14.600Z,23.00
2022-07-28T18:26:41.531Z,23.00
2022-07-28T18:29:08.544Z,22.90
2022-07-28T18:31:35.415Z,22.90
2022-07-28T18:34:02.440Z,22.90
2022-07-28T18:36:29.974Z,22.80
2022-07-28T18:38:56.861Z,22.70
2022-07-28T18:41:23.636Z,22.70
2022-07-28T18:43:50.526Z,22.70
2022-07-28T18:46:17.414Z,22.60
2022-07-28T18:48:44.282Z,22.50
2022-07-28T18:51:14.887Z,22.50
2022-07-28T18:53:42.649Z,22.40
2022-07-28T18:56:09.558Z,22.40
2022-07-28T18:58:36.324Z,22.40
2022-07-28T19:01:03.138Z,22.30
2022-07-28T19:03:31.718Z,22.30
2022-07-28T19:05:58.587Z,22.30
2022-07-28T19:08:25.305Z,22.20
2022-07-28T19:10:52.148Z,22.20
2022-07-28T19:13:18.884Z,22.10
2022-07-28T19:15:45.697Z,22.10
2022-07-28T19:18:12.496Z,22.00
2022-07-28T19:20:40.175Z,21.90
2022-07-28T19:23:07.011Z,21.90
2022-07-28T19:25:36.181Z,21.80
2022-07-28T19:28:04.605Z,21.70
2022-07-28T19:30:32.291Z,21.70
2022-07-28T19:32:59.525Z,21.70
2022-07-28T19:35:26.558Z,21.60
2022-07-28T19:37:53.600Z,21.50
2022-07-28T19:40:20.420Z,21.50
2022-07-28T19:42:48.716Z,21.50
2022-07-28T19:45:15.793Z,21.50
2022-07-28T19:47:42.801Z,21.40
2022-07-28T19:50:09.838Z,21.30
2022-07-28T19:52:37.705Z,21.30
2022-07-28T19:55:05.954Z,21.30
2022-07-28T19:57:34.435Z,21.30
2022-07-28T20:00:04.639Z,21.30
2022-07-28T20:02:31.481Z,21.20
2022-07-28T20:04:58.338Z,21.20
2022-07-28T20:07:25.206Z,21.10
2022-07-28T20:09:52.244Z,21.10
2022-07-28T20:12:19.044Z,21.10
2022-07-28T20:14:45.770Z,21.00
2022-07-28T20:17:24.601Z,21.00
2022-07-28T20:19:59.892Z,21.00
2022-07-28T20:22:26.642Z,20.90
2022-07-28T20:24:53.552Z,21.00
2022-07-28T20:27:20.278Z,21.00
2022-07-28T20:29:47.135Z,20.90
2022-07-28T20:32:13.922Z,20.90
2022-07-28T20:34:41.581Z,20.90
2022-07-28T20:37:18.846Z,20.80
2022-07-28T20:39:55.154Z,20.80
2022-07-28T20:42:22.932Z,20.80
2022-07-28T20:44:50.538Z,20.80
2022-07-28T20:47:17.370Z,20.80
2022-07-28T20:49:44.145Z,20.70
2022-07-28T20:52:10.995Z,20.70
2022-07-28T20:54:37.928Z,20.70
2022-07-28T20:57:04.868Z,20.70
2022-07-28T20:59:31.720Z,20.70
2022-07-28T21:01:59.245Z,20.60
2022-07-28T21:04:26.614Z,20.60
2022-07-28T21:07:01.843Z,20.60
2022-07-28T21:09:30.970Z,20.60
2022-07-28T21:11:57.806Z,20.50
2022-07-28T21:14:24.615Z,20.50
2022-07-28T21:16:51.598Z,20.50
2022-07-28T21:19:18.498Z,20.50
2022-07-28T21:21:45.273Z,20.50
2022-07-28T21:24:12.210Z,20.40
2022-07-28T21:26:42.437Z,20.40
2022-07-28T21:32:03.618Z,20.40
2022-07-28T21:34:28.577Z,20.40
2022-07-28T21:36:55.342Z,20.30
2022-07-28T21:39:22.130Z,20.30
2022-07-28T21:41:49.004Z,20.30
2022-07-28T21:44:15.958Z,20.30
2022-07-28T21:46:45.673Z,20.20
2022-07-28T21:49:12.697Z,20.20
2022-07-28T21:51:40.866Z,20.20
2022-07-28T21:54:07.980Z,20.20
2022-07-28T21:56:35.047Z,20.10
2022-07-28T21:59:02.811Z,20.10
2022-07-28T22:01:29.895Z,20.10
2022-07-28T22:03:57.130Z,20.10
2022-07-28T22:06:24.177Z,20.10
2022-07-28T22:08:53.900Z,20.00
2022-07-28T22:11:24.314Z,20.00
2022-07-28T22:13:51.140Z,19.90
2022-07-28T22:16:18.076Z,19.90
2022-07-28T22:18:44.919Z,19.90
2022-07-28T22:21:11.866Z,19.80
2022-07-28T22:23:41.163Z,19.80
2022-07-28T22:26:08.264Z,19.70
2022-07-28T22:28:34.999Z,19.70
2022-07-28T22:31:09.302Z,19.70
2022-07-28T22:33:37.820Z,19.60
2022-07-28T22:36:06.812Z,19.60
2022-07-28T22:38:33.584Z,19.60
2022-07-28T22:41:00.510Z,19.60
2022-07-28T22:43:27.254Z,19.60
2022-07-28T22:45:54.123Z,19.50
2022-07-28T22:48:20.955Z,19.50
2022-07-28T22:50:47.849Z,19.50
2022-07-28T22:53:14.630Z,19.50
2022-07-28T22:55:41.465Z,19.40
2022-07-28T22:58:08.212Z,19.40
2022-07-28T23:00:36.562Z,19.40
2022-07-28T23:03:04.675Z,19.40
2022-07-28T23:05:32.739Z,19.40
2022-07-28T23:07:59.529Z,19.30
2022-07-28T23:10:26.962Z,19.40
2022-07-28T23:12:57.250Z,19.40
2022-07-28T23:15:41.320Z,19.30
2022-07-28T23:18:10.553Z,19.30
2022-07-28T23:20:39.145Z,19.20
2022-07-28T23:23:06.350Z,19.30
2022-07-28T23:25:35.553Z,19.20
2022-07-28T23:28:02.373Z,19.30
2022-07-28T23:30:29.238Z,19.20
2022-07-28T23:32:56.042Z,19.30
2022-07-28T23:35:22.874Z,19.20
2022-07-28T23:37:49.724Z,19.20
2022-07-28T23:40:16.814Z,19.20
2022-07-28T23:42:43.583Z,19.20
2022-07-28T23:45:10.835Z,19.20
2022-07-28T23:47:37.723Z,19.10
2022-07-28T23:50:05.433Z,19.10
2022-07-28T23:52:32.195Z,19.10
2022-07-28T23:54:59.257Z,19.00
2022-07-28T23:57:31.104Z,19.00
2022-07-28T23:59:59.396Z,19.00
